Time;durP1;ratioP1;P1;durP2;ratioP2;P2;SDS_P1;SDS_P2;PMS_P1;PMS_P2;Temp;Humidity;BMP_temperature;BMP_pressure;BME280_temperature;BME280_humidity;BME280_pressure;Samples;Min_cycle;Max_cycle;Signal;HPM_P1;HPM_P2
2021/12/23 00:01:59;;;;;;;0.03;0.03;;;;;;;-5.91;100.00;98993.59;5053929;28;20188;-57
2021/12/23 00:04:26;;;;;;;0.00;0.00;;;;;;;-5.89;100.00;98996.13;5054171;28;20268;-57
2021/12/23 00:06:52;;;;;;;0.10;0.10;;;;;;;-5.92;100.00;98994.47;5053671;28;20210;-58
2021/12/23 00:09:21;;;;;;;0.10;0.10;;;;;;;-5.93;100.00;98988.56;5054113;28;20195;-58
2021/12/23 00:11:48;;;;;;;0.03;0.03;;;;;;;-5.90;100.00;98992.72;5053019;28;20188;-58
2021/12/23 00:14:16;;;;;;;0.00;0.00;;;;;;;-5.88;100.00;98987.63;5053368;28;20186;-58
2021/12/23 00:16:45;;;;;;;0.00;0.00;;;;;;;-5.92;100.00;98986.84;5053958;28;20252;-57
2021/12/23 00:19:23;;;;;;;0.10;0.10;;;;;;;-5.91;100.00;98978.34;5053564;28;20208;-58
2021/12/23 00:24:35;;;;;;;0.00;0.00;;;;;;;-5.75;100.00;98962.72;5053790;28;20229;-56
2021/12/23 00:27:02;;;;;;;0.00;0.00;;;;;;;-5.68;100.00;98959.97;5053798;28;20268;-58
2021/12/23 00:29:31;;;;;;;0.10;0.10;;;;;;;-5.69;100.00;98953.19;5053718;28;20188;-58
2021/12/23 00:31:57;;;;;;;0.00;0.00;;;;;;;-5.69;100.00;98952.38;5053356;28;20585;-56
2021/12/23 00:34:24;;;;;;;0.10;0.10;;;;;;;-5.63;100.00;98947.13;5053670;28;20239;-58
2021/12/23 00:36:53;;;;;;;0.10;0.10;;;;;;;-5.66;100.00;98947.22;5052725;28;20258;-58
2021/12/23 00:39:19;;;;;;;0.10;0.10;;;;;;;-5.64;100.00;98945.47;5052740;28;20224;-58
2021/12/23 00:41:46;;;;;;;0.07;0.07;;;;;;;-5.63;100.00;98944.59;5052881;28;20238;-58
2021/12/23 00:44:14;;;;;;;0.00;0.00;;;;;;;-5.60;100.00;98941.13;5052568;28;20192;-58
2021/12/23 00:46:42;;;;;;;0.00;0.00;;;;;;;-5.56;100.00;98938.47;5051550;28;20235;-57
2021/12/23 00:49:09;;;;;;;0.00;0.00;;;;;;;-5.54;100.00;98943.50;5052879;28;20550;-57
2021/12/23 00:51:35;;;;;;;0.00;0.00;;;;;;;-5.46;100.00;98946.66;5052170;28;20189;-56
2021/12/23 00:54:06;;;;;;;0.00;0.00;;;;;;;-5.43;100.00;98950.84;5053185;28;20244;-58
2021/12/23 00:56:35;;;;;;;0.10;0.10;;;;;;;-5.45;100.00;98945.78;5053060;28;20204;-58
2021/12/23 00:59:02;;;;;;;0.00;0.00;;;;;;;-5.39;100.00;98943.06;5052192;28;20654;-55
2021/12/23 01:01:29;;;;;;;0.00;0.00;;;;;;;-5.37;100.00;98933.69;5052219;28;20188;-57
2021/12/23 01:03:57;;;;;;;0.00;0.00;;;;;;;-5.38;100.00;98932.03;5052969;28;20725;-57
2021/12/23 01:06:24;;;;;;;0.00;0.00;;;;;;;-5.36;100.00;98917.56;5052333;28;20248;-56
2021/12/23 01:08:51;;;;;;;0.00;0.00;;;;;;;-5.36;100.00;98911.63;5052813;28;20183;-58
2021/12/23 01:11:19;;;;;;;0.10;0.10;;;;;;;-5.33;100.00;98906.47;5050975;28;20189;-58
2021/12/23 01:13:59;;;;;;;0.00;0.00;;;;;;;-5.35;100.00;98898.03;5052031;28;20178;-57
2021/12/23 01:16:47;;;;;;;0.00;0.00;;;;;;;-5.35;100.00;98898.84;5053157;28;20287;-57
2021/12/23 01:19:14;;;;;;;0.03;0.03;;;;;;;-5.29;100.00;98894.47;5052187;28;20205;-58
2021/12/23 01:21:41;;;;;;;0.00;0.00;;;;;;;-5.29;100.00;98891.94;5052094;28;20180;-57
2021/12/23 01:24:09;;;;;;;0.00;0.00;;;;;;;-5.23;100.00;98891.75;5052678;28;20748;-55
2021/12/23 01:26:37;;;;;;;0.00;0.00;;;;;;;-5.23;100.00;98881.56;5051752;28;20217;-58
2021/12/23 01:29:04;;;;;;;0.00;0.00;;;;;;;-5.19;100.00;98878.06;5052584;28;20260;-58
2021/12/23 01:31:32;;;;;;;0.00;0.00;;;;;;;-5.19;100.00;98885.69;5051897;28;20193;-57
2021/12/23 01:34:00;;;;;;;0.00;0.00;;;;;;;-5.14;100.00;98891.47;5051956;28;20183;-57
2021/12/23 01:36:29;;;;;;;0.10;0.10;;;;;;;-5.08;100.00;98893.84;5052536;28;20579;-58
2021/12/23 01:38:56;;;;;;;0.00;0.00;;;;;;;-5.05;100.00;98893.75;5051964;28;20214;-58
2021/12/23 01:41:23;;;;;;;0.00;0.00;;;;;;;-5.14;100.00;98883.00;5051647;28;20193;-56
2021/12/23 01:43:50;;;;;;;0.00;0.00;;;;;;;-5.14;100.00;98880.47;5052456;28;20196;-57
2021/12/23 01:46:18;;;;;;;0.00;0.00;;;;;;;-5.10;100.00;98885.44;5051526;28;20217;-57
2021/12/23 01:48:45;;;;;;;0.00;0.00;;;;;;;-5.09;100.00;98887.09;5050511;28;20621;-56
2021/12/23 01:51:12;;;;;;;0.00;0.00;;;;;;;-5.11;100.00;98885.47;5050463;28;20192;-57
2021/12/23 01:53:41;;;;;;;0.10;0.10;;;;;;;-5.14;100.00;98885.53;5052043;28;20184;-57
2021/12/23 01:56:08;;;;;;;0.00;0.00;;;;;;;-5.12;100.00;98865.97;5051845;28;20561;-57
2021/12/23 01:58:37;;;;;;;0.00;0.00;;;;;;;-5.14;100.00;98867.72;5051754;28;20198;-58
2021/12/23 02:01:04;;;;;;;0.00;0.00;;;;;;;-5.07;100.00;98864.13;5051322;28;20288;-57
2021/12/23 02:03:31;;;;;;;0.10;0.10;;;;;;;-5.05;100.00;98865.75;5051440;28;20260;-57
2021/12/23 02:05:58;;;;;;;0.00;0.00;;;;;;;-4.99;100.00;98867.28;5051633;28;20213;-57
2021/12/23 02:08:24;;;;;;;0.00;0.00;;;;;;;-4.95;100.00;98868.84;5051754;28;20194;-57
2021/12/23 02:10:55;;;;;;;0.00;0.00;;;;;;;-4.91;100.00;98865.31;5051087;28;20219;-57
2021/12/23 02:13:22;;;;;;;0.00;0.00;;;;;;;-4.90;100.00;98855.97;5051856;28;20185;-57
2021/12/23 02:15:49;;;;;;;0.10;0.10;;;;;;;-4.88;100.00;98856.78;5050412;28;20687;-55
2021/12/23 02:18:16;;;;;;;0.00;0.00;;;;;;;-4.87;100.00;98853.34;5051528;28;20674;-56
2021/12/23 02:20:44;;;;;;;0.00;0.00;;;;;;;-4.84;100.00;98843.06;5050644;28;20291;-56
2021/12/23 02:23:11;;;;;;;0.00;0.00;;;;;;;-4.82;100.00;98838.75;5051435;28;20212;-56
2021/12/23 02:25:38;;;;;;;0.10;0.10;;;;;;;-4.80;100.00;98839.53;5051487;28;20218;-56
2021/12/23 02:28:07;;;;;;;0.00;0.00;;;;;;;-4.75;100.00;98834.28;5050849;28;20242;-58
2021/12/23 02:30:36;;;;;;;0.10;0.10;;;;;;;-4.71;100.00;98830.75;5050733;28;20296;-56
2021/12/23 02:33:04;;;;;;;0.00;0.00;;;;;;;-4.65;100.00;98827.16;5051308;28;20651;-54
2021/12/23 02:35:32;;;;;;;0.00;0.00;;;;;;;-4.69;100.00;98826.44;5050886;28;20231;-57
2021/12/23 02:38:00;;;;;;;0.00;0.00;;;;;;;-4.65;100.00;98830.56;5050065;28;20242;-58
2021/12/23 02:40:30;;;;;;;0.00;0.00;;;;;;;-4.64;100.00;98834.78;5050257;28;20207;-56
2021/12/23 02:43:07;;;;;;;0.00;0.00;;;;;;;-4.57;100.00;98829.47;5050853;28;20217;-56
2021/12/23 02:45:33;;;;;;;0.00;0.00;;;;;;;-4.60;100.00;98832.94;5049839;28;20227;-56
2021/12/23 02:48:00;;;;;;;0.00;0.00;;;;;;;-4.63;100.00;98822.84;5049569;28;20666;-57
2021/12/23 02:50:27;;;;;;;0.00;0.00;;;;;;;-4.68;100.00;98812.81;5050236;28;20586;-57
2021/12/23 02:52:54;;;;;;;0.00;0.00;;;;;;;-4.72;100.00;98816.34;5051266;28;20196;-55
2021/12/23 02:55:22;;;;;;;0.00;0.00;;;;;;;-4.77;100.00;98811.41;5050720;28;20693;-57
2021/12/23 02:57:49;;;;;;;0.10;0.10;;;;;;;-4.79;100.00;98809.78;5051157;28;20635;-57
2021/12/23 03:00:17;;;;;;;0.00;0.00;;;;;;;-4.81;100.00;98796.28;5050646;28;20219;-57
2021/12/23 03:02:43;;;;;;;0.00;0.00;;;;;;;-4.86;100.00;98798.13;5051419;28;20203;-57
2021/12/23 03:05:11;;;;;;;0.10;0.10;;;;;;;-4.92;100.00;98784.72;5050778;28;20188;-57
2021/12/23 03:07:37;;;;;;;0.00;0.00;;;;;;;-4.86;100.00;98772.69;5051117;28;20187;-58
2021/12/23 03:10:06;;;;;;;0.00;0.00;;;;;;;-4.87;100.00;98776.94;5050242;28;20195;-57
2021/12/23 03:12:35;;;;;;;0.00;0.00;;;;;;;-4.92;100.00;98771.19;5050827;28;20271;-57
2021/12/23 03:15:02;;;;;;;0.10;0.10;;;;;;;-4.95;100.00;98782.28;5051176;28;20179;-57
2021/12/23 03:17:31;;;;;;;0.10;0.10;;;;;;;-4.90;100.00;98794.88;5045787;28;20204;-58
2021/12/23 03:19:57;;;;;;;0.00;0.00;;;;;;;-4.86;100.00;98788.81;5044932;28;20573;-55
2021/12/23 03:22:24;;;;;;;0.00;0.00;;;;;;;-4.83;100.00;98801.44;5033530;28;20201;-58
2021/12/23 03:24:51;;;;;;;0.00;0.00;;;;;;;-4.77;100.00;98802.94;5030936;28;20189;-58
2021/12/23 03:27:18;;;;;;;0.00;0.00;;;;;;;-4.75;100.00;98806.25;5030486;28;20205;-57
2021/12/23 03:29:46;;;;;;;0.00;0.00;;;;;;;-4.76;100.00;98802.88;5035963;28;20197;-56
2021/12/23 03:32:13;;;;;;;0.00;0.00;;;;;;;-4.68;100.00;98806.88;5044015;28;20554;-53
2021/12/23 03:34:40;;;;;;;0.07;0.07;;;;;;;-4.42;100.00;98803.50;5038017;28;20187;-56
2021/12/23 03:37:06;;;;;;;0.00;0.00;;;;;;;-4.33;100.00;98804.88;5045562;28;20204;-55
2021/12/23 03:39:33;;;;;;;0.00;0.00;;;;;;;-4.38;100.00;98797.41;5039714;28;20213;-55
2021/12/23 03:42:00;;;;;;;0.00;0.00;;;;;;;-4.41;100.00;98799.22;5049916;28;20204;-55
2021/12/23 03:44:27;;;;;;;0.00;0.00;;;;;;;-4.55;100.00;98790.31;5032639;28;20190;-55
2021/12/23 03:46:55;;;;;;;0.00;0.00;;;;;;;-4.61;100.00;98786.28;5030187;28;20296;-54
2021/12/23 03:49:22;;;;;;;0.10;0.10;;;;;;;-4.68;100.00;98779.72;5045233;28;20192;-51
2021/12/23 03:51:48;;;;;;;0.00;0.00;;;;;;;-4.73;100.00;98779.03;5049647;28;20199;-53
2021/12/23 03:54:15;;;;;;;0.00;0.00;;;;;;;-4.77;100.00;98774.94;5050326;28;20205;-55
2021/12/23 03:56:44;;;;;;;0.00;0.00;;;;;;;-4.77;100.00;98777.47;5050217;28;20218;-56
2021/12/23 03:59:11;;;;;;;0.00;0.00;;;;;;;-4.82;100.00;98777.63;5050461;28;20263;-56
2021/12/23 04:01:38;;;;;;;0.00;0.00;;;;;;;-4.85;100.00;98771.78;5049852;28;20185;-57
2021/12/23 04:04:06;;;;;;;0.00;0.00;;;;;;;-4.91;100.00;98768.56;5048664;28;20190;-56
2021/12/23 04:06:33;;;;;;;0.07;0.07;;;;;;;-4.95;100.00;98758.53;5031556;28;20302;-53
2021/12/23 04:09:00;;;;;;;0.00;0.00;;;;;;;-5.04;100.00;98764.75;5029734;28;20567;-55
2021/12/23 04:11:27;;;;;;;0.00;0.00;;;;;;;-5.14;100.00;98764.22;5029118;28;20225;-55
2021/12/23 04:13:54;;;;;;;0.00;0.00;;;;;;;-5.14;100.00;98764.22;5031723;28;20260;-58
2021/12/23 04:16:22;;;;;;;0.00;0.00;;;;;;;-5.25;100.00;98754.38;5034395;28;20245;-53
2021/12/23 04:18:50;;;;;;;0.00;0.00;;;;;;;-5.32;100.00;98749.53;5034395;28;20198;-55
2021/12/23 04:21:19;;;;;;;0.00;0.00;;;;;;;-5.37;100.00;98742.06;5032344;28;20225;-56
2021/12/23 04:23:46;;;;;;;0.00;0.00;;;;;;;-5.36;100.00;98738.63;5034333;28;20283;-54
2021/12/23 04:26:13;;;;;;;0.00;0.00;;;;;;;-5.32;100.00;98727.47;5034250;28;20217;-55
2021/12/23 04:28:46;;;;;;;0.10;0.10;;;;;;;-5.34;100.00;98714.78;5034120;28;20190;-56
2021/12/23 04:31:15;;;;;;;0.00;0.00;;;;;;;-5.38;100.00;98712.41;5033401;28;20185;-56
2021/12/23 04:33:42;;;;;;;0.07;0.07;;;;;;;-5.40;100.00;98706.53;5034196;28;20188;-56
2021/12/23 04:36:09;;;;;;;0.00;0.00;;;;;;;-5.37;100.00;98688.63;5033925;28;20299;-56
2021/12/23 04:38:39;;;;;;;0.00;0.00;;;;;;;-5.37;100.00;98702.16;5033911;28;20664;-55
2021/12/23 04:41:06;;;;;;;0.10;0.10;;;;;;;-5.27;100.00;98689.97;5033327;28;20208;-57
2021/12/23 04:43:33;;;;;;;0.00;0.00;;;;;;;-5.28;100.00;98695.13;5033914;28;20190;-56
2021/12/23 04:45:59;;;;;;;0.00;0.00;;;;;;;-5.24;100.00;98692.41;5032436;28;20246;-53
2021/12/23 04:48:27;;;;;;;0.00;0.00;;;;;;;-5.16;100.00;98702.34;5033952;28;20272;-56
2021/12/23 04:50:54;;;;;;;0.00;0.00;;;;;;;-4.99;100.00;98711.97;5033266;28;20200;-56
2021/12/23 04:53:21;;;;;;;0.00;0.00;;;;;;;-4.94;100.00;98719.47;5041273;28;20254;-58
2021/12/23 04:55:50;;;;;;;0.03;0.03;;;;;;;-4.87;100.00;98713.28;5049326;28;20247;-54
2021/12/23 04:58:16;;;;;;;0.10;0.10;;;;;;;-4.79;100.00;98713.03;5052481;28;20222;-55
2021/12/23 05:00:47;;;;;;;0.10;0.10;;;;;;;-4.80;100.00;98711.34;5052029;28;20300;-54
2021/12/23 05:03:14;;;;;;;0.00;0.00;;;;;;;-4.78;100.00;98724.88;5053350;28;20561;-55
2021/12/23 05:05:41;;;;;;;0.00;0.00;;;;;;;-4.85;100.00;98731.91;5053107;28;20640;-56
2021/12/23 05:08:08;;;;;;;0.10;0.10;;;;;;;-4.81;100.00;98724.97;5052758;28;20280;-53
2021/12/23 05:10:35;;;;;;;0.00;0.00;;;;;;;-4.86;100.00;98724.28;5052141;28;20186;-57
2021/12/23 05:13:04;;;;;;;0.00;0.00;;;;;;;-4.87;100.00;98715.84;5053252;28;20194;-54
2021/12/23 05:15:31;;;;;;;0.10;0.10;;;;;;;-4.86;100.00;98709.03;5052733;28;20282;-53
2021/12/23 05:17:59;;;;;;;0.00;0.00;;;;;;;-4.87;100.00;98702.25;5053109;28;20266;-55
2021/12/23 05:20:27;;;;;;;0.00;0.00;;;;;;;-4.82;100.00;98698.69;5052284;28;20203;-56
2021/12/23 05:22:53;;;;;;;0.00;0.00;;;;;;;-4.69;100.00;98690.59;5052096;28;20191;-57
2021/12/23 05:25:21;;;;;;;0.00;0.00;;;;;;;-4.61;100.00;98675.88;5052521;28;20186;-56
2021/12/23 05:27:52;;;;;;;0.10;0.10;;;;;;;-4.55;100.00;98678.22;5052834;28;20275;-57
2021/12/23 05:30:21;;;;;;;0.00;0.00;;;;;;;-4.42;100.00;98675.25;5051696;28;20308;-55
2021/12/23 05:32:49;;;;;;;0.00;0.00;;;;;;;-4.41;100.00;98674.34;5052830;28;20278;-56
2021/12/23 05:35:18;;;;;;;0.10;0.10;;;;;;;-4.42;100.00;98678.63;5052412;28;20193;-53
2021/12/23 05:37:45;;;;;;;0.00;0.00;;;;;;;-4.42;100.00;98671.00;5052088;28;20200;-56
2021/12/23 05:40:15;;;;;;;0.00;0.00;;;;;;;-4.46;100.00;98674.53;5051626;28;20255;-57
2021/12/23 05:42:42;;;;;;;0.00;0.00;;;;;;;-4.42;100.00;98665.03;5052470;28;20263;-56
2021/12/23 05:45:09;;;;;;;0.00;0.00;;;;;;;-4.45;100.00;98677.00;5052070;28;20235;-55
2021/12/23 05:47:38;;;;;;;0.00;0.00;;;;;;;-4.49;100.00;98684.84;5051594;28;20192;-57
2021/12/23 05:50:07;;;;;;;0.00;0.00;;;;;;;-4.59;100.00;98699.59;5051034;28;20670;-56
2021/12/23 05:52:34;;;;;;;0.00;0.00;;;;;;;-4.67;100.00;98699.88;5050989;28;20188;-54
2021/12/23 05:55:02;;;;;;;0.00;0.00;;;;;;;-4.68;100.00;98705.84;5051756;28;20196;-57
2021/12/23 05:57:29;;;;;;;0.00;0.00;;;;;;;-4.70;100.00;98694.88;5049978;28;20266;-56
2021/12/23 05:59:55;;;;;;;0.00;0.00;;;;;;;-4.77;100.00;98694.25;5050169;28;20710;-53
2021/12/23 06:02:22;;;;;;;0.10;0.10;;;;;;;-4.79;100.00;98690.09;5051509;28;20810;-56
2021/12/23 06:04:50;;;;;;;0.00;0.00;;;;;;;-4.85;100.00;98672.50;5050098;28;20282;-55
2021/12/23 06:07:17;;;;;;;0.10;0.10;;;;;;;-4.85;100.00;98669.94;5047722;28;20221;-53
2021/12/23 06:09:44;;;;;;;0.00;0.00;;;;;;;-4.83;100.00;98663.09;5049653;28;20192;-58
2021/12/23 06:12:11;;;;;;;0.00;0.00;;;;;;;-4.82;100.00;98646.91;5048900;28;20533;-58
2021/12/23 06:14:38;;;;;;;0.00;0.00;;;;;;;-4.67;100.00;98651.47;5049233;28;20187;-53
2021/12/23 06:17:05;;;;;;;0.10;0.10;;;;;;;-4.66;100.00;98647.19;5050518;28;20205;-57
2021/12/23 06:19:32;;;;;;;0.00;0.00;;;;;;;-4.69;100.00;98639.66;5050000;28;20676;-60
2021/12/23 06:22:01;;;;;;;0.10;0.10;;;;;;;-4.74;100.00;98653.41;5049599;28;20223;-58
2021/12/23 06:24:27;;;;;;;0.00;0.00;;;;;;;-4.77;100.00;98652.69;5048885;28;20196;-56
2021/12/23 06:26:54;;;;;;;0.10;0.10;;;;;;;-4.82;100.00;98657.09;5049802;28;20210;-57
2021/12/23 06:29:43;;;;;;;0.00;0.00;;;;;;;-4.80;100.00;98645.16;5046951;28;20214;-56
2021/12/23 06:32:10;;;;;;;0.00;0.00;;;;;;;-4.76;100.00;98644.97;5049573;28;20354;-53
2021/12/23 06:34:38;;;;;;;0.00;0.00;;;;;;;-4.66;100.00;98637.00;5049759;28;20659;-56
2021/12/23 06:37:06;;;;;;;0.00;0.00;;;;;;;-4.74;100.00;98635.56;5048546;28;20213;-54
2021/12/23 06:39:33;;;;;;;0.00;0.00;;;;;;;-4.64;100.00;98633.53;5049390;28;20645;-56
2021/12/23 06:42:00;;;;;;;0.00;0.00;;;;;;;-4.66;100.00;98620.03;5049229;28;20280;-56
2021/12/23 06:44:27;;;;;;;0.00;0.00;;;;;;;-4.61;100.00;98620.69;5046326;28;20200;-56
2021/12/23 06:46:54;;;;;;;0.00;0.00;;;;;;;-4.56;100.00;98628.16;5049278;28;20215;-55
2021/12/23 06:49:21;;;;;;;0.07;0.07;;;;;;;-4.56;100.00;98620.50;5050017;28;20215;-56
2021/12/23 06:51:48;;;;;;;0.00;0.00;;;;;;;-4.51;100.00;98615.25;5049590;28;20196;-56
2021/12/23 06:54:17;;;;;;;0.00;0.00;;;;;;;-4.48;100.00;98626.16;5049378;28;20234;-53
2021/12/23 06:56:46;;;;;;;0.00;0.00;;;;;;;-4.48;100.00;98604.97;5050285;28;20216;-55
2021/12/23 06:59:15;;;;;;;0.00;0.00;;;;;;;-4.42;100.00;98606.44;5049019;28;20592;-56
2021/12/23 07:01:41;;;;;;;0.00;0.00;;;;;;;-4.40;100.00;98612.31;5049914;28;20697;-57
2021/12/23 07:04:14;;;;;;;0.10;0.10;;;;;;;-4.42;100.00;98604.72;5050928;28;20532;-56
2021/12/23 07:06:47;;;;;;;0.00;0.00;;;;;;;-4.41;100.00;98610.66;5050264;28;20302;-53
2021/12/23 07:09:16;;;;;;;0.00;0.00;;;;;;;-4.37;100.00;98619.84;5050721;28;20552;-56
2021/12/23 07:11:43;;;;;;;0.00;0.00;;;;;;;-4.39;100.00;98629.25;5049886;28;20247;-56
2021/12/23 07:14:09;;;;;;;0.00;0.00;;;;;;;-4.32;100.00;98634.09;5049857;28;20180;-55
2021/12/23 07:16:38;;;;;;;0.00;0.00;;;;;;;-4.33;100.00;98631.59;5050562;28;20300;-59
2021/12/23 07:19:05;;;;;;;0.00;0.00;;;;;;;-4.29;100.00;98633.13;5050624;28;20730;-54
2021/12/23 07:21:31;;;;;;;0.00;0.00;;;;;;;-4.32;100.00;98626.44;5049257;28;20578;-57
2021/12/23 07:23:58;;;;;;;0.10;0.10;;;;;;;-4.26;100.00;98622.00;5050717;28;20201;-53
2021/12/23 07:26:26;;;;;;;0.00;0.00;;;;;;;-4.20;100.00;98639.59;5050350;28;20510;-57
2021/12/23 07:28:53;;;;;;;0.00;0.00;;;;;;;-4.19;100.00;98647.19;5049392;28;20280;-59
2021/12/23 07:31:20;;;;;;;0.00;0.00;;;;;;;-4.15;100.00;98653.84;5049993;28;20195;-53
2021/12/23 07:33:47;;;;;;;0.00;0.00;;;;;;;-4.12;100.00;98647.78;5050460;28;20589;-58
2021/12/23 07:36:17;;;;;;;0.00;0.00;;;;;;;-4.07;100.00;98652.72;5049967;28;20294;-56
2021/12/23 07:38:44;;;;;;;0.00;0.00;;;;;;;-3.94;100.00;98647.97;5050657;28;20272;-56
2021/12/23 07:41:11;;;;;;;0.00;0.00;;;;;;;-3.92;99.86;98646.19;5049551;28;20299;-54
2021/12/23 07:43:56;;;;;;;0.00;0.00;;;;;;;-3.83;99.76;98650.13;5050002;28;20722;-56
2021/12/23 07:46:24;;;;;;;0.10;0.10;;;;;;;-3.77;99.80;98647.34;5050335;28;20758;-58
2021/12/23 07:48:52;;;;;;;0.00;0.00;;;;;;;-3.74;99.72;98655.69;5031069;28;20274;-54
2021/12/23 07:51:18;;;;;;;0.00;0.00;;;;;;;-3.74;99.47;98648.03;5033244;28;20222;-55
2021/12/23 07:53:45;;;;;;;0.00;0.00;;;;;;;-3.65;99.96;98643.47;5034380;28;20189;-57
2021/12/23 07:56:12;;;;;;;0.03;0.03;;;;;;;-3.67;99.34;98646.06;5034161;28;20213;-56
2021/12/23 07:58:41;;;;;;;0.00;0.00;;;;;;;-3.65;98.71;98651.13;5043366;28;20192;-58
2021/12/23 08:01:08;;;;;;;0.00;0.00;;;;;;;-3.61;98.56;98655.22;5052594;28;20208;-56
2021/12/23 08:03:35;;;;;;;0.00;0.00;;;;;;;-3.54;98.41;98658.34;5054188;28;20184;-54
2021/12/23 08:06:01;;;;;;;0.00;0.00;;;;;;;-3.54;98.62;98655.78;5051957;28;20227;-52
2021/12/23 08:08:28;;;;;;;0.00;0.00;;;;;;;-3.48;98.27;98650.44;5053940;28;20285;-55
2021/12/23 08:10:55;;;;;;;0.00;0.00;;;;;;;-3.49;97.57;98647.06;5053342;28;20282;-54
2021/12/23 08:13:22;;;;;;;0.00;0.00;;;;;;;-3.44;97.86;98650.28;5053759;28;20189;-58
2021/12/23 08:15:50;;;;;;;0.00;0.00;;;;;;;-3.42;96.14;98651.03;5052590;28;20220;-56
2021/12/23 08:18:17;;;;;;;0.00;0.00;;;;;;;-3.33;96.57;98664.31;5053444;28;20267;-54
2021/12/23 08:20:44;;;;;;;0.00;0.00;;;;;;;-3.37;96.77;98666.16;5052847;28;20213;-55
2021/12/23 08:23:10;;;;;;;0.00;0.00;;;;;;;-3.26;97.21;98668.28;5053681;28;20264;-56
2021/12/23 08:25:37;;;;;;;0.00;0.00;;;;;;;-3.17;97.26;98665.31;5053639;28;20219;-55
2021/12/23 08:28:05;;;;;;;0.00;0.00;;;;;;;-3.14;96.48;98666.94;5053081;28;20247;-57
2021/12/23 08:30:32;;;;;;;0.00;0.00;;;;;;;-3.10;96.28;98648.03;5052668;28;20274;-53
2021/12/23 08:33:00;;;;;;;0.00;0.00;;;;;;;-3.06;96.62;98641.06;5053459;28;20232;-56
2021/12/23 08:35:27;;;;;;;0.00;0.00;;;;;;;-3.01;96.68;98641.72;5052954;28;20190;-56
2021/12/23 08:37:54;;;;;;;0.00;0.00;;;;;;;-2.85;95.69;98652.13;5052770;28;20186;-53
2021/12/23 08:40:23;;;;;;;0.00;0.00;;;;;;;-2.74;93.45;98661.88;5051798;28;20266;-55
2021/12/23 08:42:53;;;;;;;0.00;0.00;;;;;;;-2.71;93.89;98654.06;5052407;28;20575;-56
2021/12/23 08:45:21;;;;;;;0.00;0.00;;;;;;;-2.60;93.69;98656.16;5053201;28;20599;-57
2021/12/23 08:47:48;;;;;;;0.00;0.00;;;;;;;-2.50;94.29;98643.81;5053098;28;20292;-56
2021/12/23 08:50:19;;;;;;;0.00;0.00;;;;;;;-2.43;94.71;98647.75;5052069;28;20200;-56
2021/12/23 08:52:46;;;;;;;0.00;0.00;;;;;;;-2.33;94.04;98641.34;5053211;28;20204;-55
2021/12/23 08:55:16;;;;;;;0.00;0.00;;;;;;;-2.29;93.52;98631.78;5052657;28;20516;-55
2021/12/23 08:57:44;;;;;;;0.00;0.00;;;;;;;-2.20;94.34;98622.88;5051647;28;20836;-58
2021/12/23 09:00:13;;;;;;;0.00;0.00;;;;;;;-2.13;94.08;98614.03;5049360;28;20276;-57
2021/12/23 09:02:40;;;;;;;0.00;0.00;;;;;;;-2.04;93.27;98623.00;5052618;28;20320;-56
2021/12/23 09:05:08;;;;;;;0.00;0.00;;;;;;;-1.95;93.04;98605.47;5037614;28;20278;-59
2021/12/23 09:07:36;;;;;;;0.00;0.00;;;;;;;-1.80;92.63;98621.00;5032462;28;20586;-54
2021/12/23 09:10:05;;;;;;;0.00;0.00;;;;;;;-1.79;92.29;98613.28;5032439;28;20195;-58
2021/12/23 09:12:32;;;;;;;0.00;0.00;;;;;;;-1.60;92.91;98607.28;5032315;28;20666;-56
2021/12/23 09:14:59;;;;;;;0.00;0.00;;;;;;;-1.58;92.30;98604.63;5032972;28;20570;-53
2021/12/23 09:17:26;;;;;;;0.00;0.00;;;;;;;-1.40;92.59;98598.63;5031567;28;20247;-58
2021/12/23 09:19:52;;;;;;;0.00;0.00;;;;;;;-1.26;91.93;98595.34;5045752;28;20192;-55
2021/12/23 09:22:22;;;;;;;0.00;0.00;;;;;;;-1.20;91.09;98597.63;5051963;28;20217;-56
2021/12/23 09:24:56;;;;;;;0.00;0.00;;;;;;;-1.17;90.29;98594.09;5052424;28;20520;-56
2021/12/23 09:27:30;;;;;;;0.00;0.00;;;;;;;-1.17;91.32;98600.94;5052274;28;20206;-57
2021/12/23 09:32:53;;;;;;;0.00;0.00;;;;;;;-1.08;90.50;98587.66;5052273;28;20569;-54
2021/12/23 09:35:24;;;;;;;0.00;0.00;;;;;;;-1.20;91.72;98592.50;5049957;28;20240;-56
2021/12/23 09:37:52;;;;;;;0.00;0.00;;;;;;;-0.97;92.04;98595.63;5048765;28;20229;-53
2021/12/23 09:40:23;;;;;;;0.00;0.00;;;;;;;-0.97;91.51;98575.13;5045298;28;20197;-56
2021/12/23 09:42:51;;;;;;;0.00;0.00;;;;;;;-0.51;91.17;98582.13;5047866;28;20229;-56
2021/12/23 09:45:18;;;;;;;0.00;0.00;;;;;;;-0.44;89.72;98587.75;5048380;28;20594;-56
2021/12/23 09:47:48;;;;;;;0.00;0.00;;;;;;;-0.21;91.06;98570.28;5051689;28;20722;-56
2021/12/23 09:50:18;;;;;;;0.00;0.00;;;;;;;0.19;90.83;98575.78;5051320;28;20237;-55
2021/12/23 09:52:47;;;;;;;0.00;0.00;;;;;;;1.13;86.59;98573.81;5051777;28;20269;-56
2021/12/23 09:55:16;;;;;;;0.00;0.00;;;;;;;1.27;81.82;98591.81;5049972;28;20191;-54
2021/12/23 09:57:47;;;;;;;0.00;0.00;;;;;;;1.17;84.41;98583.84;5051567;28;20229;-54
2021/12/23 10:00:19;;;;;;;0.00;0.00;;;;;;;1.49;81.52;98574.28;5050511;28;20223;-56
2021/12/23 10:02:47;;;;;;;0.00;0.00;;;;;;;1.45;80.73;98574.47;5050254;28;20716;-56
2021/12/23 10:05:16;;;;;;;0.00;0.00;;;;;;;1.58;81.76;98587.38;5049519;28;20727;-57
2021/12/23 10:07:45;;;;;;;0.00;0.00;;;;;;;1.58;83.17;98577.09;5051397;28;20233;-57
2021/12/23 10:10:17;;;;;;;0.00;0.00;;;;;;;1.75;82.33;98568.31;5050670;28;20190;-56
2021/12/23 10:27:15;;;;;;;0.00;0.00;;;;;;;1.58;81.13;98581.44;5050911;28;20202;-56
2021/12/23 10:32:52;;;;;;;0.00;0.00;;;;;;;1.46;79.42;98582.97;5050740;28;20198;-54
2021/12/23 10:38:08;;;;;;;0.00;0.00;;;;;;;1.14;80.67;98571.16;5051054;28;20198;-57
2021/12/23 10:40:36;;;;;;;0.00;0.00;;;;;;;1.26;82.35;98572.16;5050064;28;20270;-57
2021/12/23 10:43:03;;;;;;;0.00;0.00;;;;;;;1.29;81.52;98571.16;5050979;28;20310;-58
2021/12/23 10:45:36;;;;;;;0.00;0.00;;;;;;;1.25;82.66;98578.22;5047071;28;20202;-57
2021/12/23 10:48:13;;;;;;;0.00;0.00;;;;;;;1.17;82.89;98567.56;5050678;28;20195;-57
2021/12/23 10:50:44;;;;;;;0.00;0.00;;;;;;;1.25;82.43;98562.78;5050591;28;20695;-52
2021/12/23 10:53:23;;;;;;;0.00;0.00;;;;;;;1.31;81.69;98566.75;5050716;28;20273;-56
2021/12/23 10:59:09;;;;;;;0.00;0.00;;;;;;;1.55;82.67;98545.59;5050251;28;20301;-55
2021/12/23 11:01:57;;;;;;;0.00;0.00;;;;;;;1.56;82.69;98544.66;5047971;28;20203;-56
2021/12/23 11:04:26;;;;;;;0.00;0.00;;;;;;;1.52;83.25;98553.50;5047391;28;20202;-57
2021/12/23 11:07:11;;;;;;;0.10;0.10;;;;;;;1.71;84.49;98540.31;5049881;28;20276;-57
2021/12/23 11:09:59;;;;;;;0.00;0.00;;;;;;;1.95;83.07;98537.09;5048283;28;20194;-57
2021/12/23 11:37:52;;;;;;;0.00;0.00;;;;;;;2.95;79.05;98472.97;5053074;28;20320;-55
2021/12/23 11:40:37;;;;;;;0.00;0.00;;;;;;;3.04;79.14;98464.59;5052005;28;20191;-59
2021/12/23 11:43:27;;;;;;;0.00;0.00;;;;;;;3.39;78.49;98475.94;5052077;28;20279;-57
2021/12/23 11:45:54;;;;;;;31.20;19.07;;;;;;;3.63;78.25;98470.75;5053164;28;20723;-56
2021/12/23 11:48:22;;;;;;;32.97;18.47;;;;;;;3.79;76.82;98467.88;5053249;28;20649;-53
2021/12/23 11:51:07;;;;;;;23.00;14.40;;;;;;;4.11;74.55;98451.78;5052830;28;20735;-57
2021/12/23 11:53:37;;;;;;;12.73;7.80;;;;;;;5.78;86.38;98439.03;5052306;28;20201;-55
2021/12/23 11:56:08;;;;;;;13.13;7.70;;;;;;;6.33;70.32;98424.16;5053577;28;20286;-52
2021/12/23 11:58:36;;;;;;;16.53;9.50;;;;;;;6.97;64.79;98430.94;5053609;28;20565;-54
2021/12/23 12:01:08;;;;;;;25.73;9.03;;;;;;;7.29;64.67;98415.13;5052306;28;20190;-52
2021/12/23 12:03:41;;;;;;;11.37;6.90;;;;;;;7.22;60.75;98404.47;5050887;28;20225;-55
2021/12/23 12:06:18;;;;;;;7.97;5.17;;;;;;;7.12;58.98;98416.63;5053518;28;20689;-50
2021/12/23 12:08:47;;;;;;;6.40;4.00;;;;;;;7.11;58.45;98409.78;5050162;28;20191;-52
2021/12/23 12:11:17;;;;;;;4.10;2.70;;;;;;;7.30;57.10;98390.81;5027655;22;20236;-54
2021/12/23 12:13:44;;;;;;;4.83;2.90;;;;;;;7.34;56.18;98386.19;5010952;28;20188;-54
2021/12/23 12:16:27;;;;;;;5.00;2.67;;;;;;;7.56;55.43;98384.25;5013623;28;20227;-56
2021/12/23 12:18:54;;;;;;;5.13;2.97;;;;;;;7.63;55.81;98375.78;5014092;28;20651;-55
2021/12/23 12:21:23;;;;;;;5.10;2.43;;;;;;;7.67;55.31;98382.34;5012073;28;20212;-54
2021/12/23 12:24:07;;;;;;;7.13;3.83;;;;;;;8.67;54.96;98384.53;5013234;28;20291;-53
2021/12/23 12:26:37;;;;;;;8.70;3.50;;;;;;;8.56;55.01;98387.31;5012220;28;20263;-55
2021/12/23 12:29:05;;;;;;;6.73;3.27;;;;;;;8.30;53.28;98385.34;5007475;28;20661;-55
2021/12/23 12:31:40;;;;;;;6.83;2.93;;;;;;;8.23;54.22;98379.09;5011296;28;20213;-52